Dennis, Texas
Current Conditions -  °F | °C
As of 9:55 AM on Saturday 25 Oct 2014 (Local Time) from KGDJ Reporting Station
Clear Clear  
Wind Chill: 72°   Ceiling: Unl
Heat Index: 72°   Visibility: 10mi
Dew Point: 61°   Wind: 5mph
Humidity: 68%   Direction: 110°ESE
Pressure: 30.17"   Gusts: NA
Location:  32.62°N, 97.93°W
Report Text: KGDJ 251455Z AUTO 11004KT 10SM CLR 22/16 A3017 RMK AO2 T02210160
Loading
Personal Weather Stations






























Interactive Weather Map New forecast layout! Learn more

10-Day Weather Forecast

Advertisements
Track Severe Weather on mobile